sensor_id;sensor_type;location;lat;lon;timestamp;P1;durP1;ratioP1;P2;durP2;ratioP2
77718;SDS011;66888;44.498;0.166;2024-01-30T00:03:12;14.03;;;5.20;;
77718;SDS011;66888;44.498;0.166;2024-01-30T00:18:32;17.87;;;7.53;;
77718;SDS011;66888;44.498;0.166;2024-01-30T00:33:53;6.87;;;4.73;;
77718;SDS011;66888;44.498;0.166;2024-01-30T00:49:14;10.67;;;4.93;;
77718;SDS011;66888;44.498;0.166;2024-01-30T01:04:35;15.67;;;6.33;;
77718;SDS011;66888;44.498;0.166;2024-01-30T01:19:54;13.87;;;5.57;;
77718;SDS011;66888;44.498;0.166;2024-01-30T01:35:14;10.60;;;5.20;;
77718;SDS011;66888;44.498;0.166;2024-01-30T01:50:32;22.33;;;6.83;;
77718;SDS011;66888;44.498;0.166;2024-01-30T02:05:52;12.00;;;6.23;;
77718;SDS011;66888;44.498;0.166;2024-01-30T02:21:12;19.47;;;6.43;;
77718;SDS011;66888;44.498;0.166;2024-01-30T02:36:32;13.03;;;5.90;;
77718;SDS011;66888;44.498;0.166;2024-01-30T02:51:52;11.63;;;6.70;;
77718;SDS011;66888;44.498;0.166;2024-01-30T03:07:10;13.70;;;7.37;;
77718;SDS011;66888;44.498;0.166;2024-01-30T03:22:29;12.03;;;7.50;;
77718;SDS011;66888;44.498;0.166;2024-01-30T03:37:49;17.20;;;8.33;;
77718;SDS011;66888;44.498;0.166;2024-01-30T03:53:09;21.70;;;8.93;;
77718;SDS011;66888;44.498;0.166;2024-01-30T04:08:29;23.30;;;10.30;;
77718;SDS011;66888;44.498;0.166;2024-01-30T04:23:51;21.60;;;9.70;;
77718;SDS011;66888;44.498;0.166;2024-01-30T04:39:11;30.60;;;10.70;;
77718;SDS011;66888;44.498;0.166;2024-01-30T04:54:31;17.57;;;9.97;;
77718;SDS011;66888;44.498;0.166;2024-01-30T05:09:53;19.37;;;10.17;;
77718;SDS011;66888;44.498;0.166;2024-01-30T05:25:13;16.73;;;9.53;;
77718;SDS011;66888;44.498;0.166;2024-01-30T05:40:32;21.73;;;10.47;;
77718;SDS011;66888;44.498;0.166;2024-01-30T05:55:54;17.33;;;9.63;;
77718;SDS011;66888;44.498;0.166;2024-01-30T06:11:13;18.17;;;10.00;;
77718;SDS011;66888;44.498;0.166;2024-01-30T06:26:33;29.17;;;11.87;;
77718;SDS011;66888;44.498;0.166;2024-01-30T06:41:53;20.67;;;10.20;;
77718;SDS011;66888;44.498;0.166;2024-01-30T06:57:12;14.63;;;9.03;;
77718;SDS011;66888;44.498;0.166;2024-01-30T07:12:33;12.70;;;9.57;;
77718;SDS011;66888;44.498;0.166;2024-01-30T07:27:53;20.23;;;11.53;;
77718;SDS011;66888;44.498;0.166;2024-01-30T07:43:14;28.20;;;11.57;;
77718;SDS011;66888;44.498;0.166;2024-01-30T07:58:36;32.43;;;12.20;;
77718;SDS011;66888;44.498;0.166;2024-01-30T08:13:56;21.00;;;11.00;;
77718;SDS011;66888;44.498;0.166;2024-01-30T08:29:16;17.93;;;11.40;;
77718;SDS011;66888;44.498;0.166;2024-01-30T08:44:36;17.50;;;10.33;;
77718;SDS011;66888;44.498;0.166;2024-01-30T08:59:55;13.50;;;8.87;;
77718;SDS011;66888;44.498;0.166;2024-01-30T09:15:15;17.73;;;8.00;;
77718;SDS011;66888;44.498;0.166;2024-01-30T09:30:37;15.80;;;6.73;;
77718;SDS011;66888;44.498;0.166;2024-01-30T09:45:58;18.43;;;7.07;;
77718;SDS011;66888;44.498;0.166;2024-01-30T10:01:18;11.77;;;6.00;;
77718;SDS011;66888;44.498;0.166;2024-01-30T10:16:39;11.03;;;5.50;;
77718;SDS011;66888;44.498;0.166;2024-01-30T10:31:59;11.93;;;4.77;;
77718;SDS011;66888;44.498;0.166;2024-01-30T10:47:21;8.17;;;3.10;;
77718;SDS011;66888;44.498;0.166;2024-01-30T11:02:41;9.70;;;3.83;;
77718;SDS011;66888;44.498;0.166;2024-01-30T11:18:01;10.53;;;3.20;;
77718;SDS011;66888;44.498;0.166;2024-01-30T11:33:30;11.37;;;4.00;;
77718;SDS011;66888;44.498;0.166;2024-01-30T11:48:44;9.23;;;3.60;;
77718;SDS011;66888;44.498;0.166;2024-01-30T12:04:04;9.57;;;2.80;;
77718;SDS011;66888;44.498;0.166;2024-01-30T12:19:26;10.17;;;3.20;;
77718;SDS011;66888;44.498;0.166;2024-01-30T12:34:46;4.57;;;2.33;;
77718;SDS011;66888;44.498;0.166;2024-01-30T12:50:07;6.90;;;2.90;;
77718;SDS011;66888;44.498;0.166;2024-01-30T13:05:28;6.17;;;2.33;;
77718;SDS011;66888;44.498;0.166;2024-01-30T13:20:48;12.83;;;2.90;;
77718;SDS011;66888;44.498;0.166;2024-01-30T13:36:10;7.07;;;2.63;;
77718;SDS011;66888;44.498;0.166;2024-01-30T13:51:30;10.10;;;2.90;;
77718;SDS011;66888;44.498;0.166;2024-01-30T14:06:52;5.50;;;2.90;;
77718;SDS011;66888;44.498;0.166;2024-01-30T14:22:12;10.87;;;3.67;;
77718;SDS011;66888;44.498;0.166;2024-01-30T14:37:31;7.67;;;2.60;;
77718;SDS011;66888;44.498;0.166;2024-01-30T14:52:51;9.10;;;3.87;;
77718;SDS011;66888;44.498;0.166;2024-01-30T15:08:11;9.37;;;3.63;;
77718;SDS011;66888;44.498;0.166;2024-01-30T15:23:32;5.73;;;3.60;;
77718;SDS011;66888;44.498;0.166;2024-01-30T15:38:53;9.63;;;3.30;;
77718;SDS011;66888;44.498;0.166;2024-01-30T15:54:11;3.77;;;3.17;;
77718;SDS011;66888;44.498;0.166;2024-01-30T16:09:30;8.90;;;3.07;;
77718;SDS011;66888;44.498;0.166;2024-01-30T16:24:45;6.37;;;3.13;;
77718;SDS011;66888;44.498;0.166;2024-01-30T16:40:05;11.80;;;3.47;;
77718;SDS011;66888;44.498;0.166;2024-01-30T16:55:25;9.27;;;4.90;;
77718;SDS011;66888;44.498;0.166;2024-01-30T17:10:43;11.10;;;5.07;;
77718;SDS011;66888;44.498;0.166;2024-01-30T17:26:03;13.83;;;4.97;;
77718;SDS011;66888;44.498;0.166;2024-01-30T17:41:23;7.43;;;5.73;;
77718;SDS011;66888;44.498;0.166;2024-01-30T17:56:42;12.93;;;4.93;;
77718;SDS011;66888;44.498;0.166;2024-01-30T18:12:03;13.53;;;5.93;;
77718;SDS011;66888;44.498;0.166;2024-01-30T18:27:23;8.60;;;5.50;;
77718;SDS011;66888;44.498;0.166;2024-01-30T18:42:43;14.63;;;5.00;;
77718;SDS011;66888;44.498;0.166;2024-01-30T18:58:04;9.60;;;4.70;;
77718;SDS011;66888;44.498;0.166;2024-01-30T19:13:22;8.07;;;3.63;;
77718;SDS011;66888;44.498;0.166;2024-01-30T19:28:43;10.77;;;4.43;;
77718;SDS011;66888;44.498;0.166;2024-01-30T19:44:04;10.30;;;5.03;;
77718;SDS011;66888;44.498;0.166;2024-01-30T19:59:23;16.20;;;5.43;;
77718;SDS011;66888;44.498;0.166;2024-01-30T20:14:44;19.30;;;7.63;;
77718;SDS011;66888;44.498;0.166;2024-01-30T20:30:05;15.00;;;6.27;;
77718;SDS011;66888;44.498;0.166;2024-01-30T20:45:24;9.17;;;5.23;;
77718;SDS011;66888;44.498;0.166;2024-01-30T21:00:44;18.17;;;5.50;;
77718;SDS011;66888;44.498;0.166;2024-01-30T21:16:04;13.33;;;6.00;;
77718;SDS011;66888;44.498;0.166;2024-01-30T21:31:23;16.90;;;5.40;;
77718;SDS011;66888;44.498;0.166;2024-01-30T21:46:42;9.53;;;5.40;;
77718;SDS011;66888;44.498;0.166;2024-01-30T22:02:02;9.33;;;4.30;;
77718;SDS011;66888;44.498;0.166;2024-01-30T22:17:23;7.67;;;3.73;;
77718;SDS011;66888;44.498;0.166;2024-01-30T22:32:43;40.97;;;15.53;;
77718;SDS011;66888;44.498;0.166;2024-01-30T22:48:02;15.60;;;7.33;;
77718;SDS011;66888;44.498;0.166;2024-01-30T23:03:22;20.43;;;8.70;;
77718;SDS011;66888;44.498;0.166;2024-01-30T23:18:43;24.67;;;9.37;;
77718;SDS011;66888;44.498;0.166;2024-01-30T23:34:03;17.53;;;7.20;;
77718;SDS011;66888;44.498;0.166;2024-01-30T23:49:24;13.17;;;5.93;;
